createdAt,value
2022-10-19T00:02:22.436Z,96721.63
2022-10-19T00:04:49.008Z,96723.97
2022-10-19T00:07:15.595Z,96721.84
2022-10-19T00:09:43.805Z,96719.53
2022-10-19T00:12:10.972Z,96718.50
2022-10-19T00:14:37.501Z,96718.09
2022-10-19T00:17:04.026Z,96710.31
2022-10-19T00:19:30.638Z,96717.00
2022-10-19T00:21:57.282Z,96720.28
2022-10-19T00:24:23.882Z,96717.09
2022-10-19T00:26:50.420Z,96715.19
2022-10-19T00:29:17.328Z,96715.13
2022-10-19T00:31:43.990Z,96717.09
2022-10-19T00:34:10.651Z,96714.16
2022-10-19T00:36:40.034Z,96710.31
2022-10-19T00:39:10.900Z,96708.28
2022-10-19T00:41:38.734Z,96715.31
2022-10-19T00:44:28.315Z,96709.75
2022-10-19T00:46:59.165Z,96705.25
2022-10-19T00:49:29.840Z,96708.09
2022-10-19T00:52:01.539Z,96704.47
2022-10-19T00:54:28.310Z,96704.34
2022-10-19T00:56:57.815Z,96699.41
2022-10-19T00:59:26.642Z,96696.56
2022-10-19T01:01:54.267Z,96694.94
2022-10-19T01:04:23.452Z,96692.41
2022-10-19T01:09:23.239Z,96687.91
2022-10-19T01:12:15.175Z,96681.75
2022-10-19T01:14:50.693Z,96680.75
2022-10-19T01:17:52.485Z,96682.88
2022-10-19T01:20:33.643Z,96684.50
2022-10-19T01:23:24.229Z,96687.44
2022-10-19T01:26:19.909Z,96689.09
2022-10-19T01:29:08.238Z,96688.81
2022-10-19T01:31:49.156Z,96682.97
2022-10-19T01:34:48.894Z,96682.13
2022-10-19T01:37:35.588Z,96682.03
2022-10-19T01:40:02.395Z,96684.88
2022-10-19T01:42:46.761Z,96674.13
2022-10-19T01:45:21.693Z,96679.06
2022-10-19T01:47:52.751Z,96675.38
2022-10-19T01:50:27.250Z,96675.66
2022-10-19T01:52:55.483Z,96667.59
2022-10-19T01:55:24.455Z,96669.88
2022-10-19T01:57:59.193Z,96668.66
2022-10-19T02:00:27.516Z,96661.31
2022-10-19T02:02:56.028Z,96659.63
2022-10-19T02:05:30.859Z,96652.47
2022-10-19T02:08:05.839Z,96658.69
2022-10-19T02:10:35.159Z,96654.03
2022-10-19T02:13:03.100Z,96654.81
2022-10-19T02:15:34.711Z,96669.06
2022-10-19T02:18:03.331Z,96660.53
2022-10-19T02:20:30.675Z,96663.72
2022-10-19T02:22:57.215Z,96656.69
2022-10-19T02:25:25.033Z,96657.06
2022-10-19T02:27:52.530Z,96657.28
2022-10-19T02:30:20.190Z,96651.84
2022-10-19T02:32:46.765Z,96646.59
2022-10-19T02:35:14.698Z,96652.41
2022-10-19T02:37:42.014Z,96646.13
2022-10-19T02:40:09.480Z,96652.25
2022-10-19T02:42:42.671Z,96655.97
2022-10-19T02:45:29.389Z,96647.81
2022-10-19T02:48:01.087Z,96647.44
2022-10-19T02:50:27.837Z,96645.31
2022-10-19T02:52:54.394Z,96645.84
2022-10-19T02:55:21.017Z,96647.56
2022-10-19T02:57:47.540Z,96647.78
2022-10-19T03:00:14.714Z,96643.84
2022-10-19T03:02:41.246Z,96634.50
2022-10-19T03:05:09.193Z,96635.25
2022-10-19T03:07:36.242Z,96634.09
2022-10-19T03:10:03.338Z,96632.34
2022-10-19T03:12:29.945Z,96634.50
2022-10-19T03:14:56.561Z,96635.38
2022-10-19T03:17:23.093Z,96631.66
2022-10-19T03:19:49.691Z,96637.13
2022-10-19T03:22:16.262Z,96635.13
2022-10-19T03:24:42.810Z,96625.56
2022-10-19T03:27:09.355Z,96632.97
2022-10-19T03:29:36.000Z,96632.13
2022-10-19T03:32:02.569Z,96629.34
2022-10-19T03:34:29.309Z,96628.72
2022-10-19T03:36:56.777Z,96629.94
2022-10-19T03:39:23.388Z,96622.25
2022-10-19T03:41:50.000Z,96621.44
2022-10-19T03:44:16.724Z,96619.94
2022-10-19T03:46:43.417Z,96613.25
2022-10-19T03:49:10.238Z,96621.28
2022-10-19T03:51:36.836Z,96623.47
2022-10-19T03:54:06.340Z,96614.94
2022-10-19T03:56:33.954Z,96612.84
2022-10-19T03:59:01.927Z,96618.19
2022-10-19T04:01:37.923Z,96619.00
2022-10-19T04:04:07.541Z,96614.84
2022-10-19T04:06:37.403Z,96609.97
2022-10-19T04:09:05.569Z,96612.69
2022-10-19T04:11:33.759Z,96607.06
2022-10-19T04:14:00.973Z,96607.63
2022-10-19T04:16:29.570Z,96600.94
2022-10-19T04:18:56.595Z,96601.22
2022-10-19T04:21:27.888Z,96605.88
2022-10-19T04:24:00.127Z,96601.91
2022-10-19T04:26:27.045Z,96610.56
2022-10-19T04:28:53.890Z,96608.16
2022-10-19T04:31:20.525Z,96598.09
2022-10-19T04:36:19.352Z,96604.91
2022-10-19T04:38:46.181Z,96604.25
2022-10-19T04:41:15.307Z,96605.84
2022-10-19T04:43:45.120Z,96603.66
2022-10-19T04:46:19.363Z,96594.59
2022-10-19T04:48:47.896Z,96606.25
2022-10-19T04:51:15.763Z,96600.16
2022-10-19T04:53:43.456Z,96605.19
2022-10-19T04:56:13.567Z,96596.75
2022-10-19T04:58:40.106Z,96602.06
2022-10-19T05:01:18.394Z,96590.88
2022-10-19T05:03:45.758Z,96592.63
2022-10-19T05:06:13.574Z,96599.19
2022-10-19T05:08:40.223Z,96594.53
2022-10-19T05:11:10.517Z,96598.97
2022-10-19T05:13:37.463Z,96599.31
2022-10-19T05:16:06.529Z,96597.34
2022-10-19T05:18:34.385Z,96597.06
2022-10-19T05:21:14.516Z,96599.34
2022-10-19T05:23:41.805Z,96595.78
2022-10-19T05:26:19.773Z,96597.81
2022-10-19T05:28:51.537Z,96591.28
2022-10-19T05:31:20.261Z,96584.47
2022-10-19T05:33:47.051Z,96578.94
2022-10-19T05:36:21.010Z,96586.78
2022-10-19T05:38:49.836Z,96578.41
2022-10-19T05:41:17.123Z,96577.78
2022-10-19T05:43:44.302Z,96581.44
2022-10-19T05:46:13.805Z,96577.56
2022-10-19T05:48:40.946Z,96584.34
2022-10-19T05:51:10.211Z,96586.59
2022-10-19T05:56:09.597Z,96584.88
2022-10-19T05:58:36.125Z,96590.03
2022-10-19T06:01:03.261Z,96592.84
2022-10-19T06:03:30.717Z,96589.56
2022-10-19T06:05:58.213Z,96590.16
2022-10-19T06:08:25.012Z,96591.69
2022-10-19T06:10:51.758Z,96586.91
2022-10-19T06:13:19.438Z,96597.31
2022-10-19T06:15:50.263Z,96596.19
2022-10-19T06:18:16.768Z,96597.50
2022-10-19T06:20:43.270Z,96594.59
2022-10-19T06:23:09.799Z,96598.22
2022-10-19T06:25:36.683Z,96602.84
2022-10-19T06:28:03.642Z,96593.13
2022-10-19T06:30:30.329Z,96604.72
2022-10-19T06:32:59.122Z,96611.19
2022-10-19T06:35:25.882Z,96607.91
2022-10-19T06:37:52.416Z,96602.25
2022-10-19T06:40:19.095Z,96610.41
2022-10-19T06:42:45.718Z,96616.34
2022-10-19T06:45:12.261Z,96616.91
2022-10-19T06:47:39.174Z,96617.66
2022-10-19T06:50:06.893Z,96619.34
2022-10-19T06:52:35.317Z,96620.53
2022-10-19T06:55:02.619Z,96625.31
2022-10-19T06:57:29.394Z,96622.50
2022-10-19T06:59:55.979Z,96620.88
2022-10-19T07:02:22.554Z,96622.00
2022-10-19T07:04:49.096Z,96623.66
2022-10-19T07:07:15.850Z,96620.22
2022-10-19T07:09:42.391Z,96613.72
2022-10-19T07:12:10.724Z,96616.66
2022-10-19T07:14:39.601Z,96617.59
2022-10-19T07:17:07.006Z,96623.78
2022-10-19T07:19:34.350Z,96619.97
2022-10-19T07:22:00.892Z,96619.69
2022-10-19T07:24:27.500Z,96621.91
2022-10-19T07:26:54.240Z,96618.81
2022-10-19T07:29:21.191Z,96619.38
2022-10-19T07:31:47.991Z,96620.47
2022-10-19T07:34:14.971Z,96615.84
2022-10-19T07:36:45.345Z,96615.84
2022-10-19T07:39:13.119Z,96615.72
2022-10-19T07:41:39.844Z,96625.16
2022-10-19T07:44:07.457Z,96618.72
2022-10-19T07:46:38.663Z,96618.94
2022-10-19T07:49:09.885Z,96626.41
2022-10-19T07:51:38.543Z,96623.19
2022-10-19T07:54:05.232Z,96619.22
2022-10-19T07:56:32.090Z,96614.91
2022-10-19T07:59:00.139Z,96618.81
2022-10-19T08:01:31.985Z,96620.81
2022-10-19T08:06:46.573Z,96620.47
2022-10-19T08:09:27.620Z,96622.34
2022-10-19T08:11:59.763Z,96616.00
2022-10-19T08:14:26.401Z,96619.53
2022-10-19T08:16:52.911Z,96608.47
2022-10-19T08:19:19.442Z,96615.19
2022-10-19T08:21:46.921Z,96617.56
2022-10-19T08:24:15.224Z,96610.31
2022-10-19T08:26:42.268Z,96617.41
2022-10-19T08:29:14.960Z,96607.63
2022-10-19T08:31:43.032Z,96618.56
2022-10-19T08:34:09.798Z,96610.94
2022-10-19T08:36:37.114Z,96601.44
2022-10-19T08:39:06.030Z,96598.72
2022-10-19T08:41:50.081Z,96603.44
2022-10-19T08:44:49.161Z,96606.44
2022-10-19T08:47:35.930Z,96606.28
2022-10-19T08:50:03.673Z,96600.91
2022-10-19T08:52:34.788Z,96600.28
2022-10-19T08:55:08.907Z,96598.41
2022-10-19T08:58:04.889Z,96597.28
2022-10-19T09:00:48.245Z,96591.41
2022-10-19T09:03:37.667Z,96594.97
2022-10-19T09:06:26.984Z,96595.69
2022-10-19T09:08:55.727Z,96592.66
2022-10-19T09:11:46.206Z,96586.72
2022-10-19T09:14:33.004Z,96585.28
2022-10-19T09:17:04.025Z,96575.22
2022-10-19T09:19:31.950Z,96580.28
2022-10-19T09:22:23.530Z,96573.16
2022-10-19T09:24:55.459Z,96582.22
2022-10-19T09:27:30.035Z,96580.16
2022-10-19T09:30:05.447Z,96587.28
2022-10-19T09:32:38.674Z,96584.69
2022-10-19T09:35:17.413Z,96584.44
2022-10-19T09:37:47.002Z,96587.41
2022-10-19T09:40:18.443Z,96577.47
2022-10-19T09:42:45.065Z,96586.47
2022-10-19T09:45:26.092Z,96594.00
2022-10-19T09:47:53.353Z,96587.78
2022-10-19T09:50:25.731Z,96587.31
2022-10-19T09:52:57.478Z,96585.59
2022-10-19T09:55:37.796Z,96587.16
2022-10-19T09:58:13.500Z,96581.50
2022-10-19T10:00:50.722Z,96582.88
2022-10-19T10:03:29.429Z,96578.44
2022-10-19T10:05:59.216Z,96584.25
2022-10-19T10:08:36.830Z,96572.06
2022-10-19T10:11:22.243Z,96571.75
2022-10-19T10:13:51.684Z,96567.41
2022-10-19T10:16:22.196Z,96569.00
2022-10-19T10:18:56.822Z,96570.88
2022-10-19T10:21:33.917Z,96558.44
2022-10-19T10:24:17.873Z,96561.50
2022-10-19T10:26:56.736Z,96557.72
2022-10-19T10:29:35.158Z,96553.47
2022-10-19T10:32:06.337Z,96552.50
2022-10-19T10:34:58.393Z,96544.28
2022-10-19T10:37:42.670Z,96546.34
2022-10-19T10:40:24.684Z,96545.09
2022-10-19T10:42:55.123Z,96536.19
2022-10-19T10:45:24.797Z,96538.72
2022-10-19T10:47:53.125Z,96532.78
2022-10-19T10:50:25.881Z,96530.41
2022-10-19T10:53:07.387Z,96529.88
2022-10-19T10:55:34.570Z,96525.88
2022-10-19T10:58:13.941Z,96523.66
2022-10-19T11:00:41.029Z,96529.34
2022-10-19T11:03:19.953Z,96523.41
2022-10-19T11:05:59.296Z,96522.50
2022-10-19T11:08:49.178Z,96513.91
2022-10-19T11:11:17.799Z,96515.88
2022-10-19T11:13:56.025Z,96507.63
2022-10-19T11:16:28.898Z,96510.84
2022-10-19T11:19:02.077Z,96502.16
2022-10-19T11:21:40.330Z,96503.50
2022-10-19T11:24:18.117Z,96500.53
2022-10-19T11:27:28.231Z,96498.97
2022-10-19T11:30:01.477Z,96500.13
2022-10-19T11:32:36.670Z,96488.63
2022-10-19T11:35:09.275Z,96479.72
2022-10-19T11:37:45.654Z,96483.69
2022-10-19T11:40:45.841Z,96478.56
2022-10-19T11:43:37.001Z,96478.50
2022-10-19T11:46:21.717Z,96466.22
2022-10-19T11:49:13.534Z,96461.88
2022-10-19T11:52:13.011Z,96467.59
2022-10-19T11:55:14.038Z,96450.69
2022-10-19T11:58:05.639Z,96455.59
2022-10-19T12:00:44.638Z,96447.19
2022-10-19T12:03:24.798Z,96450.34
2022-10-19T12:06:17.978Z,96453.22
2022-10-19T12:09:15.287Z,96457.88
2022-10-19T12:12:03.539Z,96453.16
2022-10-19T12:14:39.587Z,96446.41
2022-10-19T12:17:23.377Z,96455.69
2022-10-19T12:19:55.238Z,96454.91
2022-10-19T12:22:25.107Z,96452.47
2022-10-19T12:24:55.433Z,96449.19
2022-10-19T12:27:30.577Z,96444.09
2022-10-19T12:30:02.756Z,96449.19
2022-10-19T12:32:36.502Z,96434.50
2022-10-19T12:35:47.284Z,96436.66
2022-10-19T12:38:46.140Z,96441.16
2022-10-19T12:41:44.283Z,96434.31
2022-10-19T12:44:13.900Z,96424.56
2022-10-19T12:46:49.819Z,96422.25
2022-10-19T12:49:46.056Z,96423.19
2022-10-19T12:52:14.942Z,96426.00
2022-10-19T12:54:43.641Z,96425.31
2022-10-19T12:57:30.656Z,96412.56
2022-10-19T13:00:00.842Z,96413.75
2022-10-19T13:02:35.307Z,96400.69
2022-10-19T13:05:03.267Z,96405.97
2022-10-19T13:07:34.830Z,96397.81
2022-10-19T13:10:05.544Z,96392.03
2022-10-19T13:12:44.788Z,96383.78
2022-10-19T13:15:35.694Z,96392.53
2022-10-19T13:18:12.861Z,96387.00
2022-10-19T13:23:06.945Z,96379.91
2022-10-19T13:25:40.673Z,96390.19
2022-10-19T13:28:07.337Z,96382.16
2022-10-19T13:30:39.584Z,96380.28
2022-10-19T13:33:24.824Z,96374.03
2022-10-19T13:36:00.491Z,96377.44
2022-10-19T13:41:22.382Z,96371.88
2022-10-19T13:43:55.436Z,96367.53
2022-10-19T13:46:29.738Z,96366.84
2022-10-19T13:49:13.663Z,96366.53
2022-10-19T13:51:58.685Z,96361.34
2022-10-19T13:55:02.916Z,96356.56
2022-10-19T13:58:06.755Z,96355.84
2022-10-19T14:01:04.220Z,96353.69
2022-10-19T14:03:33.709Z,96350.03
2022-10-19T14:06:15.060Z,96342.09
2022-10-19T14:08:47.655Z,96342.09
2022-10-19T14:11:18.176Z,96338.06
2022-10-19T14:13:46.279Z,96336.41
2022-10-19T14:16:21.899Z,96337.44
2022-10-19T14:18:55.915Z,96339.50
2022-10-19T14:21:31.824Z,96342.56
2022-10-19T14:23:58.556Z,96336.13
2022-10-19T14:26:30.821Z,96337.34
2022-10-19T14:28:59.863Z,96334.25
2022-10-19T14:31:34.132Z,96334.03
2022-10-19T14:34:03.811Z,96332.41
2022-10-19T14:36:39.046Z,96319.28
2022-10-19T14:39:07.561Z,96323.59
2022-10-19T14:41:36.381Z,96321.50
2022-10-19T14:44:30.743Z,96322.75
2022-10-19T14:47:01.181Z,96322.03
2022-10-19T14:49:28.107Z,96315.31
2022-10-19T14:52:00.533Z,96321.78
2022-10-19T14:54:32.552Z,96323.91
2022-10-19T14:57:05.195Z,96316.72
2022-10-19T14:59:38.263Z,96316.06
2022-10-19T15:02:17.124Z,96315.75
2022-10-19T15:04:44.071Z,96314.06
2022-10-19T15:07:36.998Z,96305.66
2022-10-19T15:10:08.373Z,96305.50
2022-10-19T15:12:41.349Z,96311.84
2022-10-19T15:15:17.238Z,96306.41
2022-10-19T15:18:06.357Z,96311.59
2022-10-19T15:20:49.497Z,96309.63
2022-10-19T15:23:45.026Z,96314.09
2022-10-19T15:26:22.278Z,96309.16
2022-10-19T15:28:49.419Z,96291.13
2022-10-19T15:31:23.856Z,96292.84
2022-10-19T15:33:59.668Z,96291.00
2022-10-19T15:36:27.943Z,96293.97
2022-10-19T15:39:06.125Z,96287.44
2022-10-19T15:41:44.404Z,96284.06
2022-10-19T15:44:40.979Z,96289.84
2022-10-19T15:47:18.778Z,96287.63
2022-10-19T15:49:45.724Z,96285.84
2022-10-19T15:52:17.245Z,96277.06
2022-10-19T15:54:47.523Z,96268.88
2022-10-19T15:57:37.344Z,96271.47
2022-10-19T16:00:17.203Z,96281.16
2022-10-19T16:02:44.215Z,96276.13
2022-10-19T16:05:11.444Z,96273.03
2022-10-19T16:07:40.816Z,96281.16
2022-10-19T16:10:11.409Z,96281.66
2022-10-19T16:12:37.983Z,96275.09
2022-10-19T16:15:05.145Z,96268.63
2022-10-19T16:17:33.116Z,96282.44
2022-10-19T16:19:59.877Z,96283.41
2022-10-19T16:22:26.398Z,96281.47
2022-10-19T16:24:52.933Z,96270.16
2022-10-19T16:27:19.492Z,96276.00
2022-10-19T16:29:46.062Z,96264.91
2022-10-19T16:32:12.656Z,96263.91
2022-10-19T16:34:39.303Z,96264.41
2022-10-19T16:37:07.280Z,96265.97
2022-10-19T16:39:34.816Z,96269.16
2022-10-19T16:42:01.513Z,96268.25
2022-10-19T16:44:28.364Z,96263.34
2022-10-19T16:46:59.262Z,96274.09
2022-10-19T16:49:26.641Z,96271.03
2022-10-19T16:51:57.424Z,96265.00
2022-10-19T16:54:25.718Z,96265.03
2022-10-19T16:56:52.637Z,96272.59
2022-10-19T16:59:19.394Z,96269.41
2022-10-19T17:01:46.677Z,96271.69
2022-10-19T17:04:17.121Z,96274.00
2022-10-19T17:06:43.790Z,96280.66
2022-10-19T17:11:57.069Z,96272.63
2022-10-19T17:14:23.607Z,96267.84
2022-10-19T17:16:50.458Z,96271.47
2022-10-19T17:19:18.254Z,96273.78
2022-10-19T17:21:45.140Z,96269.03
2022-10-19T17:24:20.380Z,96280.44
2022-10-19T17:26:51.255Z,96272.72
2022-10-19T17:29:21.042Z,96265.56
2022-10-19T17:31:48.642Z,96265.59
2022-10-19T17:34:15.884Z,96260.41
2022-10-19T17:36:45.143Z,96260.41
2022-10-19T17:39:19.214Z,96275.41
2022-10-19T17:41:47.524Z,96269.31
2022-10-19T17:44:14.599Z,96279.59
2022-10-19T17:46:41.606Z,96285.38
2022-10-19T17:49:09.152Z,96291.56
2022-10-19T17:51:36.978Z,96286.38
2022-10-19T17:54:07.514Z,96289.38
2022-10-19T17:56:35.530Z,96297.31
2022-10-19T17:59:03.105Z,96294.19
2022-10-19T18:01:30.869Z,96298.75
2022-10-19T18:03:57.634Z,96293.81
2022-10-19T18:06:31.553Z,96285.34
2022-10-19T18:09:00.080Z,96283.72
2022-10-19T18:11:29.762Z,96287.88
2022-10-19T18:13:59.430Z,96283.41
2022-10-19T18:16:29.495Z,96285.78
2022-10-19T18:18:57.538Z,96288.53
2022-10-19T18:21:30.489Z,96282.59
2022-10-19T18:23:59.227Z,96287.59
2022-10-19T18:26:28.100Z,96278.88
2022-10-19T18:28:55.887Z,96281.34
2022-10-19T18:31:30.715Z,96274.88
2022-10-19T18:34:02.701Z,96272.56
2022-10-19T18:36:30.693Z,96266.53
2022-10-19T18:38:59.882Z,96259.06
2022-10-19T18:41:27.511Z,96256.41
2022-10-19T18:43:56.462Z,96249.00
2022-10-19T18:46:24.539Z,96241.34
2022-10-19T18:48:51.420Z,96243.84
2022-10-19T18:51:19.182Z,96245.47
2022-10-19T18:53:47.077Z,96236.56
2022-10-19T18:56:18.154Z,96231.88
2022-10-19T18:58:45.334Z,96234.66
2022-10-19T19:01:13.345Z,96234.22
2022-10-19T19:03:45.470Z,96232.53
2022-10-19T19:06:34.732Z,96234.94
2022-10-19T19:09:04.458Z,96240.31
2022-10-19T19:11:36.067Z,96242.38
2022-10-19T19:14:14.470Z,96236.19
2022-10-19T19:16:43.154Z,96242.59
2022-10-19T19:19:11.985Z,96232.00
2022-10-19T19:21:41.029Z,96232.81
2022-10-19T19:24:08.095Z,96227.75
2022-10-19T19:26:38.870Z,96223.19
2022-10-19T19:29:05.427Z,96230.31
2022-10-19T19:31:32.035Z,96228.22
2022-10-19T19:34:03.059Z,96220.56
2022-10-19T19:36:29.746Z,96210.97
2022-10-19T19:38:56.819Z,96211.44
2022-10-19T19:41:24.582Z,96209.00
2022-10-19T19:43:51.504Z,96207.31
2022-10-19T19:46:19.470Z,96200.72
2022-10-19T19:48:47.584Z,96195.66
2022-10-19T19:51:17.784Z,96200.78
2022-10-19T19:53:45.418Z,96197.94
2022-10-19T19:56:13.203Z,96190.66
2022-10-19T19:58:41.000Z,96182.56
2022-10-19T20:01:20.637Z,96184.38
2022-10-19T20:03:48.803Z,96183.13
2022-10-19T20:06:18.726Z,96174.56
2022-10-19T20:08:47.480Z,96184.88
2022-10-19T20:11:17.437Z,96176.09
2022-10-19T20:13:45.566Z,96181.31
2022-10-19T20:16:18.027Z,96170.06
2022-10-19T20:18:48.837Z,96173.25
2022-10-19T20:21:15.973Z,96175.03
2022-10-19T20:23:46.627Z,96170.41
2022-10-19T20:26:18.366Z,96180.47
2022-10-19T20:28:46.269Z,96179.97
2022-10-19T20:31:13.565Z,96189.38
2022-10-19T20:33:42.111Z,96191.44
2022-10-19T20:36:14.264Z,96191.78
2022-10-19T20:38:46.273Z,96199.44
2022-10-19T20:41:13.708Z,96195.22
2022-10-19T20:43:40.345Z,96206.66
2022-10-19T20:46:13.531Z,96201.81
2022-10-19T20:48:40.833Z,96194.91
2022-10-19T20:51:30.631Z,96194.84
2022-10-19T20:54:01.800Z,96199.09
2022-10-19T20:56:31.402Z,96192.66
2022-10-19T21:01:36.484Z,96193.75
2022-10-19T21:04:05.383Z,96193.63
2022-10-19T21:06:38.093Z,96188.13
2022-10-19T21:09:04.811Z,96194.34
2022-10-19T21:11:34.792Z,96191.66
2022-10-19T21:14:07.241Z,96187.66
2022-10-19T21:16:35.228Z,96185.97
2022-10-19T21:19:04.305Z,96191.31
2022-10-19T21:21:34.011Z,96177.00
2022-10-19T21:24:11.075Z,96180.66
2022-10-19T21:26:38.472Z,96178.69
2022-10-19T21:29:07.357Z,96183.75
2022-10-19T21:31:35.194Z,96187.50
2022-10-19T21:34:06.574Z,96174.59
2022-10-19T21:36:33.501Z,96176.22
2022-10-19T21:39:00.707Z,96184.72
2022-10-19T21:41:27.536Z,96174.66
2022-10-19T21:43:54.743Z,96181.25
2022-10-19T21:46:22.950Z,96176.34
2022-10-19T21:48:50.089Z,96177.00
2022-10-19T21:51:39.191Z,96178.56
2022-10-19T21:54:07.913Z,96172.38
2022-10-19T21:56:35.134Z,96177.94
2022-10-19T21:59:01.742Z,96174.06
2022-10-19T22:01:30.161Z,96172.63
2022-10-19T22:03:58.487Z,96163.84
2022-10-19T22:06:27.282Z,96163.69
2022-10-19T22:08:54.296Z,96166.44
2022-10-19T22:11:21.377Z,96166.81
2022-10-19T22:13:48.131Z,96161.56
2022-10-19T22:16:17.714Z,96154.16
2022-10-19T22:18:44.723Z,96153.69
2022-10-19T22:21:20.359Z,96147.13
2022-10-19T22:23:53.327Z,96155.19
2022-10-19T22:26:25.540Z,96150.28
2022-10-19T22:28:54.240Z,96149.56
2022-10-19T22:31:21.320Z,96147.63
2022-10-19T22:33:47.955Z,96137.44
2022-10-19T22:36:14.536Z,96133.66
2022-10-19T22:38:41.065Z,96131.53
2022-10-19T22:41:09.127Z,96123.31
2022-10-19T22:43:36.872Z,96118.03
2022-10-19T22:46:03.458Z,96110.88
2022-10-19T22:48:30.002Z,96101.25
2022-10-19T22:50:56.661Z,96106.66
2022-10-19T22:53:24.077Z,96095.72
2022-10-19T22:55:51.639Z,96099.19
2022-10-19T22:58:19.078Z,96095.88
2022-10-19T23:00:45.619Z,96091.66
2022-10-19T23:03:12.253Z,96087.16
2022-10-19T23:05:38.799Z,96080.28
2022-10-19T23:08:05.568Z,96085.84
2022-10-19T23:10:32.645Z,96088.44
2022-10-19T23:12:59.349Z,96092.13
2022-10-19T23:15:26.055Z,96084.16
2022-10-19T23:17:52.606Z,96075.91
2022-10-19T23:20:19.162Z,96084.16
2022-10-19T23:22:46.009Z,96080.00
2022-10-19T23:25:12.938Z,96076.38
2022-10-19T23:27:39.730Z,96069.25
2022-10-19T23:30:06.997Z,96068.88
2022-10-19T23:32:33.530Z,96069.63
2022-10-19T23:35:00.070Z,96070.97
2022-10-19T23:37:26.722Z,96072.97
2022-10-19T23:39:53.302Z,96067.84
2022-10-19T23:42:19.865Z,96059.06
2022-10-19T23:44:46.595Z,96061.19
2022-10-19T23:47:13.954Z,96067.50
2022-10-19T23:49:40.528Z,96054.72
2022-10-19T23:52:07.389Z,96057.66
2022-10-19T23:54:33.956Z,96049.50
2022-10-19T23:57:00.676Z,96058.56
2022-10-19T23:59:27.635Z,96051.50
